sensor_id;sensor_type;location;lat;lon;timestamp;pressure;altitude;pressure_sealevel;temperature;humidity
21640;BME280;10981;45.462;10.974;2023-04-09T00:01:23;64048.03;;;-145.56;100.00
21640;BME280;10981;45.462;10.974;2023-04-09T00:03:52;64048.03;;;-145.56;100.00
21640;BME280;10981;45.462;10.974;2023-04-09T00:06:20;64048.03;;;-145.56;100.00
21640;BME280;10981;45.462;10.974;2023-04-09T00:08:48;64048.03;;;-145.56;100.00
21640;BME280;10981;45.462;10.974;2023-04-09T00:11:18;64048.03;;;-145.56;100.00
21640;BME280;10981;45.462;10.974;2023-04-09T00:13:46;64048.03;;;-145.56;100.00
21640;BME280;10981;45.462;10.974;2023-04-09T00:16:14;64048.03;;;-145.56;100.00
21640;BME280;10981;45.462;10.974;2023-04-09T00:18:43;64048.03;;;-145.56;100.00
21640;BME280;10981;45.462;10.974;2023-04-09T00:21:11;64048.03;;;-145.56;100.00
21640;BME280;10981;45.462;10.974;2023-04-09T00:23:39;64048.03;;;-145.56;100.00
21640;BME280;10981;45.462;10.974;2023-04-09T00:26:08;64048.03;;;-145.56;100.00
21640;BME280;10981;45.462;10.974;2023-04-09T00:28:36;64048.03;;;-145.56;100.00
21640;BME280;10981;45.462;10.974;2023-04-09T00:31:06;64048.03;;;-145.56;100.00
21640;BME280;10981;45.462;10.974;2023-04-09T00:33:34;64048.03;;;-145.56;100.00
21640;BME280;10981;45.462;10.974;2023-04-09T00:36:03;64048.03;;;-145.56;100.00
21640;BME280;10981;45.462;10.974;2023-04-09T00:38:32;64048.03;;;-145.56;100.00
21640;BME280;10981;45.462;10.974;2023-04-09T00:41:00;64048.03;;;-145.56;100.00
21640;BME280;10981;45.462;10.974;2023-04-09T00:43:28;64048.03;;;-145.56;100.00
21640;BME280;10981;45.462;10.974;2023-04-09T00:45:58;64048.03;;;-145.56;100.00
21640;BME280;10981;45.462;10.974;2023-04-09T00:48:28;64048.03;;;-145.56;100.00
21640;BME280;10981;45.462;10.974;2023-04-09T00:50:56;64048.03;;;-145.56;100.00
21640;BME280;10981;45.462;10.974;2023-04-09T00:53:25;64048.03;;;-145.56;100.00
21640;BME280;10981;45.462;10.974;2023-04-09T00:55:54;64048.03;;;-145.56;100.00
21640;BME280;10981;45.462;10.974;2023-04-09T00:58:22;64048.03;;;-145.56;100.00
21640;BME280;10981;45.462;10.974;2023-04-09T01:00:51;64048.03;;;-145.56;100.00
21640;BME280;10981;45.462;10.974;2023-04-09T01:03:19;64048.03;;;-145.56;100.00
21640;BME280;10981;45.462;10.974;2023-04-09T01:06:27;64048.03;;;-145.56;100.00
21640;BME280;10981;45.462;10.974;2023-04-09T01:15:06;64048.03;;;-145.56;100.00
21640;BME280;10981;45.462;10.974;2023-04-09T01:20:41;64048.03;;;-145.56;100.00
21640;BME280;10981;45.462;10.974;2023-04-09T01:26:02;64048.03;;;-145.56;100.00
21640;BME280;10981;45.462;10.974;2023-04-09T01:28:44;64048.03;;;-145.56;100.00
21640;BME280;10981;45.462;10.974;2023-04-09T01:31:16;64048.03;;;-145.56;100.00
21640;BME280;10981;45.462;10.974;2023-04-09T01:33:46;64048.03;;;-145.56;100.00
21640;BME280;10981;45.462;10.974;2023-04-09T01:36:14;64048.03;;;-145.56;100.00
21640;BME280;10981;45.462;10.974;2023-04-09T01:38:44;64048.03;;;-145.56;100.00
21640;BME280;10981;45.462;10.974;2023-04-09T01:41:17;64048.03;;;-145.56;100.00
21640;BME280;10981;45.462;10.974;2023-04-09T01:43:47;64048.03;;;-145.56;100.00
21640;BME280;10981;45.462;10.974;2023-04-09T01:46:17;64048.03;;;-145.56;100.00
21640;BME280;10981;45.462;10.974;2023-04-09T01:48:46;64048.03;;;-145.56;100.00
21640;BME280;10981;45.462;10.974;2023-04-09T01:51:15;64048.03;;;-145.56;100.00
21640;BME280;10981;45.462;10.974;2023-04-09T01:53:44;64048.03;;;-145.56;100.00
21640;BME280;10981;45.462;10.974;2023-04-09T01:56:13;64048.03;;;-145.56;100.00
21640;BME280;10981;45.462;10.974;2023-04-09T01:58:41;64048.03;;;-145.56;100.00
21640;BME280;10981;45.462;10.974;2023-04-09T02:01:23;64048.03;;;-145.56;100.00
21640;BME280;10981;45.462;10.974;2023-04-09T02:03:57;64048.03;;;-145.56;100.00
21640;BME280;10981;45.462;10.974;2023-04-09T02:06:36;64048.03;;;-145.56;100.00
21640;BME280;10981;45.462;10.974;2023-04-09T02:09:08;64048.03;;;-145.56;100.00
21640;BME280;10981;45.462;10.974;2023-04-09T02:11:39;64048.03;;;-145.56;100.00
21640;BME280;10981;45.462;10.974;2023-04-09T02:14:09;64048.03;;;-145.56;100.00
21640;BME280;10981;45.462;10.974;2023-04-09T02:16:39;64048.03;;;-145.56;100.00
21640;BME280;10981;45.462;10.974;2023-04-09T02:19:08;64048.03;;;-145.56;100.00
21640;BME280;10981;45.462;10.974;2023-04-09T02:21:36;64048.03;;;-145.56;100.00
21640;BME280;10981;45.462;10.974;2023-04-09T02:24:05;64048.03;;;-145.56;100.00
21640;BME280;10981;45.462;10.974;2023-04-09T02:26:34;64048.03;;;-145.56;100.00
21640;BME280;10981;45.462;10.974;2023-04-09T02:29:02;64048.03;;;-145.56;100.00
21640;BME280;10981;45.462;10.974;2023-04-09T02:31:30;64048.03;;;-145.56;100.00
21640;BME280;10981;45.462;10.974;2023-04-09T02:34:00;64048.03;;;-145.56;100.00
21640;BME280;10981;45.462;10.974;2023-04-09T02:36:28;64048.03;;;-145.56;100.00
21640;BME280;10981;45.462;10.974;2023-04-09T02:38:56;64048.03;;;-145.56;100.00
21640;BME280;10981;45.462;10.974;2023-04-09T02:41:24;64048.03;;;-145.56;100.00
21640;BME280;10981;45.462;10.974;2023-04-09T02:43:53;64048.03;;;-145.56;100.00
21640;BME280;10981;45.462;10.974;2023-04-09T02:46:21;64048.03;;;-145.56;100.00
21640;BME280;10981;45.462;10.974;2023-04-09T02:48:49;64048.03;;;-145.56;100.00
21640;BME280;10981;45.462;10.974;2023-04-09T02:51:19;64048.03;;;-145.56;100.00
21640;BME280;10981;45.462;10.974;2023-04-09T02:53:48;64048.03;;;-145.56;100.00
21640;BME280;10981;45.462;10.974;2023-04-09T02:56:16;64048.03;;;-145.56;100.00
21640;BME280;10981;45.462;10.974;2023-04-09T02:58:44;64048.03;;;-145.56;100.00
21640;BME280;10981;45.462;10.974;2023-04-09T03:01:13;64048.03;;;-145.56;100.00
21640;BME280;10981;45.462;10.974;2023-04-09T03:03:41;64048.03;;;-145.56;100.00
21640;BME280;10981;45.462;10.974;2023-04-09T03:06:10;64048.03;;;-145.56;100.00
21640;BME280;10981;45.462;10.974;2023-04-09T03:08:38;64048.03;;;-145.56;100.00
21640;BME280;10981;45.462;10.974;2023-04-09T03:11:07;64048.03;;;-145.56;100.00
21640;BME280;10981;45.462;10.974;2023-04-09T03:13:35;64048.03;;;-145.56;100.00
21640;BME280;10981;45.462;10.974;2023-04-09T03:16:03;64048.03;;;-145.56;100.00
21640;BME280;10981;45.462;10.974;2023-04-09T03:18:32;64048.03;;;-145.56;100.00
21640;BME280;10981;45.462;10.974;2023-04-09T03:21:07;64048.03;;;-145.56;100.00
21640;BME280;10981;45.462;10.974;2023-04-09T03:23:38;64048.03;;;-145.56;100.00
21640;BME280;10981;45.462;10.974;2023-04-09T03:26:08;64048.03;;;-145.56;100.00
21640;BME280;10981;45.462;10.974;2023-04-09T03:28:44;64048.03;;;-145.56;100.00
21640;BME280;10981;45.462;10.974;2023-04-09T03:31:12;64048.03;;;-145.56;100.00
21640;BME280;10981;45.462;10.974;2023-04-09T03:33:42;64048.03;;;-145.56;100.00
21640;BME280;10981;45.462;10.974;2023-04-09T03:36:11;64048.03;;;-145.56;100.00
21640;BME280;10981;45.462;10.974;2023-04-09T03:39:02;64048.03;;;-145.56;100.00
21640;BME280;10981;45.462;10.974;2023-04-09T03:41:42;64048.03;;;-145.56;100.00
21640;BME280;10981;45.462;10.974;2023-04-09T03:44:15;64048.03;;;-145.56;100.00
21640;BME280;10981;45.462;10.974;2023-04-09T03:47:02;64048.03;;;-145.56;100.00
21640;BME280;10981;45.462;10.974;2023-04-09T03:49:30;64048.03;;;-145.56;100.00
21640;BME280;10981;45.462;10.974;2023-04-09T03:52:07;64048.03;;;-145.56;100.00
21640;BME280;10981;45.462;10.974;2023-04-09T03:54:39;64048.03;;;-145.56;100.00
21640;BME280;10981;45.462;10.974;2023-04-09T03:57:13;64048.03;;;-145.56;100.00
21640;BME280;10981;45.462;10.974;2023-04-09T03:59:44;64048.03;;;-145.56;100.00
21640;BME280;10981;45.462;10.974;2023-04-09T04:02:16;64048.03;;;-145.56;100.00
21640;BME280;10981;45.462;10.974;2023-04-09T04:04:51;64048.03;;;-145.56;100.00
21640;BME280;10981;45.462;10.974;2023-04-09T04:07:22;64048.03;;;-145.56;100.00
21640;BME280;10981;45.462;10.974;2023-04-09T04:09:58;64048.03;;;-145.56;100.00
21640;BME280;10981;45.462;10.974;2023-04-09T04:12:26;64048.03;;;-145.56;100.00
21640;BME280;10981;45.462;10.974;2023-04-09T04:15:08;64048.03;;;-145.56;100.00
21640;BME280;10981;45.462;10.974;2023-04-09T04:17:50;64048.03;;;-145.56;100.00
21640;BME280;10981;45.462;10.974;2023-04-09T04:20:27;64048.03;;;-145.56;100.00
21640;BME280;10981;45.462;10.974;2023-04-09T04:23:04;64048.03;;;-145.56;100.00
21640;BME280;10981;45.462;10.974;2023-04-09T04:25:34;64048.03;;;-145.56;100.00
21640;BME280;10981;45.462;10.974;2023-04-09T04:28:03;64048.03;;;-145.56;100.00
21640;BME280;10981;45.462;10.974;2023-04-09T04:30:40;64048.03;;;-145.56;100.00
21640;BME280;10981;45.462;10.974;2023-04-09T04:33:10;64048.03;;;-145.56;100.00
21640;BME280;10981;45.462;10.974;2023-04-09T04:35:47;64048.03;;;-145.56;100.00
21640;BME280;10981;45.462;10.974;2023-04-09T04:38:34;64048.03;;;-145.56;100.00
21640;BME280;10981;45.462;10.974;2023-04-09T04:41:07;101065.19;;;8.67;100.00
21640;BME280;10981;45.462;10.974;2023-04-09T04:43:40;101062.91;;;8.63;100.00
21640;BME280;10981;45.462;10.974;2023-04-09T04:46:11;101058.81;;;8.59;100.00
21640;BME280;10981;45.462;10.974;2023-04-09T04:48:40;101065.41;;;8.64;100.00
21640;BME280;10981;45.462;10.974;2023-04-09T04:51:08;101059.03;;;8.69;100.00
21640;BME280;10981;45.462;10.974;2023-04-09T04:53:42;101063.50;;;8.66;100.00
21640;BME280;10981;45.462;10.974;2023-04-09T04:56:13;101061.88;;;8.65;100.00
21640;BME280;10981;45.462;10.974;2023-04-09T04:59:08;101063.63;;;8.65;100.00
21640;BME280;10981;45.462;10.974;2023-04-09T05:01:48;101061.75;;;8.67;100.00
21640;BME280;10981;45.462;10.974;2023-04-09T05:04:17;101066.84;;;8.69;100.00
21640;BME280;10981;45.462;10.974;2023-04-09T05:06:45;101065.59;;;8.74;100.00
21640;BME280;10981;45.462;10.974;2023-04-09T05:09:18;101071.25;;;8.81;100.00
21640;BME280;10981;45.462;10.974;2023-04-09T05:11:59;101075.63;;;8.93;100.00
21640;BME280;10981;45.462;10.974;2023-04-09T05:14:28;101075.88;;;9.03;100.00
21640;BME280;10981;45.462;10.974;2023-04-09T05:16:57;101076.19;;;9.11;100.00
21640;BME280;10981;45.462;10.974;2023-04-09T05:19:30;64048.03;;;9.11;100.00
21640;BME280;10981;45.462;10.974;2023-04-09T05:22:02;101078.06;;;9.22;100.00
21640;BME280;10981;45.462;10.974;2023-04-09T05:24:31;101082.22;;;9.25;100.00
21640;BME280;10981;45.462;10.974;2023-04-09T05:26:59;101088.38;;;9.24;100.00
21640;BME280;10981;45.462;10.974;2023-04-09T05:29:28;101080.25;;;9.15;100.00
21640;BME280;10981;45.462;10.974;2023-04-09T05:31:57;101079.00;;;9.21;100.00
21640;BME280;10981;45.462;10.974;2023-04-09T05:34:31;101078.56;;;9.27;100.00
21640;BME280;10981;45.462;10.974;2023-04-09T05:37:00;101085.88;;;9.35;100.00
21640;BME280;10981;45.462;10.974;2023-04-09T05:39:28;101092.25;;;9.44;100.00
21640;BME280;10981;45.462;10.974;2023-04-09T05:41:59;101093.06;;;9.57;100.00
21640;BME280;10981;45.462;10.974;2023-04-09T05:44:48;101090.63;;;9.67;100.00
21640;BME280;10981;45.462;10.974;2023-04-09T05:47:19;101090.00;;;9.76;100.00
21640;BME280;10981;45.462;10.974;2023-04-09T05:49:58;101094.97;;;9.92;100.00
21640;BME280;10981;45.462;10.974;2023-04-09T05:52:27;101087.91;;;10.06;100.00
21640;BME280;10981;45.462;10.974;2023-04-09T05:54:56;101088.91;;;10.16;100.00
21640;BME280;10981;45.462;10.974;2023-04-09T05:57:37;101092.78;;;10.23;100.00
21640;BME280;10981;45.462;10.974;2023-04-09T06:00:07;101085.25;;;10.43;100.00
21640;BME280;10981;45.462;10.974;2023-04-09T06:02:44;101077.47;;;11.12;100.00
21640;BME280;10981;45.462;10.974;2023-04-09T06:05:13;101081.91;;;11.90;100.00
21640;BME280;10981;45.462;10.974;2023-04-09T06:07:41;101078.84;;;12.61;100.00
21640;BME280;10981;45.462;10.974;2023-04-09T06:10:10;101082.44;;;12.81;100.00
21640;BME280;10981;45.462;10.974;2023-04-09T06:12:39;101085.69;;;12.73;100.00
21640;BME280;10981;45.462;10.974;2023-04-09T06:15:07;101095.97;;;12.44;100.00
21640;BME280;10981;45.462;10.974;2023-04-09T06:17:36;101095.25;;;12.21;100.00
21640;BME280;10981;45.462;10.974;2023-04-09T06:20:05;101099.31;;;12.14;100.00
21640;BME280;10981;45.462;10.974;2023-04-09T06:22:33;101101.50;;;11.97;100.00
21640;BME280;10981;45.462;10.974;2023-04-09T06:25:02;101098.88;;;11.86;100.00
21640;BME280;10981;45.462;10.974;2023-04-09T06:27:30;101103.16;;;11.75;100.00
21640;BME280;10981;45.462;10.974;2023-04-09T06:29:59;101100.69;;;11.63;100.00
21640;BME280;10981;45.462;10.974;2023-04-09T06:32:27;101104.25;;;11.61;100.00
21640;BME280;10981;45.462;10.974;2023-04-09T06:34:55;101105.06;;;11.73;100.00
21640;BME280;10981;45.462;10.974;2023-04-09T06:37:23;101113.78;;;11.74;100.00
21640;BME280;10981;45.462;10.974;2023-04-09T06:39:52;101113.66;;;11.87;100.00
21640;BME280;10981;45.462;10.974;2023-04-09T06:42:28;101109.97;;;12.01;100.00
21640;BME280;10981;45.462;10.974;2023-04-09T06:45:15;101111.88;;;12.64;100.00
21640;BME280;10981;45.462;10.974;2023-04-09T06:47:43;101114.13;;;13.11;100.00
21640;BME280;10981;45.462;10.974;2023-04-09T06:50:11;101108.47;;;12.94;100.00
21640;BME280;10981;45.462;10.974;2023-04-09T06:52:40;101114.84;;;12.70;100.00
21640;BME280;10981;45.462;10.974;2023-04-09T06:55:09;101123.66;;;12.69;100.00
21640;BME280;10981;45.462;10.974;2023-04-09T06:57:37;101115.34;;;12.85;100.00
21640;BME280;10981;45.462;10.974;2023-04-09T07:00:06;101123.66;;;13.12;100.00
21640;BME280;10981;45.462;10.974;2023-04-09T07:02:35;101122.13;;;13.30;100.00
21640;BME280;10981;45.462;10.974;2023-04-09T07:05:05;101121.50;;;13.38;100.00
21640;BME280;10981;45.462;10.974;2023-04-09T07:07:33;101115.31;;;13.28;100.00
21640;BME280;10981;45.462;10.974;2023-04-09T07:10:01;101123.97;;;13.39;100.00
21640;BME280;10981;45.462;10.974;2023-04-09T07:12:31;101121.31;;;13.61;100.00
21640;BME280;10981;45.462;10.974;2023-04-09T07:15:02;101131.09;;;13.99;100.00
21640;BME280;10981;45.462;10.974;2023-04-09T07:17:31;101129.19;;;14.01;100.00
21640;BME280;10981;45.462;10.974;2023-04-09T07:19:59;101127.53;;;14.20;100.00
21640;BME280;10981;45.462;10.974;2023-04-09T07:22:28;101127.53;;;14.30;100.00
21640;BME280;10981;45.462;10.974;2023-04-09T07:24:57;101130.47;;;14.46;100.00
21640;BME280;10981;45.462;10.974;2023-04-09T07:27:27;101133.66;;;14.69;95.00
21640;BME280;10981;45.462;10.974;2023-04-09T07:29:56;101132.19;;;15.14;94.39
21640;BME280;10981;45.462;10.974;2023-04-09T07:32:26;101126.28;;;15.78;88.69
21640;BME280;10981;45.462;10.974;2023-04-09T07:34:58;101131.94;;;16.11;89.00
21640;BME280;10981;45.462;10.974;2023-04-09T07:37:26;101128.63;;;16.09;86.92
21640;BME280;10981;45.462;10.974;2023-04-09T07:39:54;101128.47;;;15.92;87.12
21640;BME280;10981;45.462;10.974;2023-04-09T07:42:23;101135.53;;;15.92;89.28
21640;BME280;10981;45.462;10.974;2023-04-09T07:44:51;101140.72;;;16.11;88.57
21640;BME280;10981;45.462;10.974;2023-04-09T07:47:21;101136.34;;;16.56;83.73
21640;BME280;10981;45.462;10.974;2023-04-09T07:49:50;101140.72;;;16.29;80.69
21640;BME280;10981;45.462;10.974;2023-04-09T07:52:18;101145.94;;;15.93;83.07
21640;BME280;10981;45.462;10.974;2023-04-09T07:54:47;101142.88;;;15.32;80.15
21640;BME280;10981;45.462;10.974;2023-04-09T07:57:15;101143.59;;;15.15;82.88
21640;BME280;10981;45.462;10.974;2023-04-09T07:59:43;101143.25;;;14.80;85.53
21640;BME280;10981;45.462;10.974;2023-04-09T08:02:12;101152.22;;;14.58;83.91
21640;BME280;10981;45.462;10.974;2023-04-09T08:04:42;101149.16;;;14.53;86.87
21640;BME280;10981;45.462;10.974;2023-04-09T08:07:10;101149.41;;;14.30;85.55
21640;BME280;10981;45.462;10.974;2023-04-09T08:09:39;101158.31;;;14.39;85.62
21640;BME280;10981;45.462;10.974;2023-04-09T08:12:07;101147.91;;;14.96;87.52
21640;BME280;10981;45.462;10.974;2023-04-09T08:14:36;101151.50;;;15.15;82.91
21640;BME280;10981;45.462;10.974;2023-04-09T08:17:04;101151.41;;;15.44;83.69
21640;BME280;10981;45.462;10.974;2023-04-09T08:19:32;101156.13;;;16.52;84.00
21640;BME280;10981;45.462;10.974;2023-04-09T08:22:01;101157.47;;;17.45;81.43
21640;BME280;10981;45.462;10.974;2023-04-09T08:24:29;101163.56;;;18.31;73.03
21640;BME280;10981;45.462;10.974;2023-04-09T08:26:58;101156.16;;;18.84;74.68
21640;BME280;10981;45.462;10.974;2023-04-09T08:29:26;101167.53;;;19.34;68.50
21640;BME280;10981;45.462;10.974;2023-04-09T08:31:54;101163.91;;;19.75;71.00
21640;BME280;10981;45.462;10.974;2023-04-09T08:34:23;101165.69;;;19.91;64.78
21640;BME280;10981;45.462;10.974;2023-04-09T08:36:51;101167.00;;;20.27;62.50
21640;BME280;10981;45.462;10.974;2023-04-09T08:39:20;101173.41;;;20.32;62.42
21640;BME280;10981;45.462;10.974;2023-04-09T08:41:50;101166.88;;;19.24;62.05
21640;BME280;10981;45.462;10.974;2023-04-09T08:44:18;101170.88;;;18.70;65.17
21640;BME280;10981;45.462;10.974;2023-04-09T08:46:49;101168.22;;;17.86;67.64
21640;BME280;10981;45.462;10.974;2023-04-09T08:49:18;101169.22;;;17.51;68.45
21640;BME280;10981;45.462;10.974;2023-04-09T08:51:47;101172.47;;;17.79;68.38
21640;BME280;10981;45.462;10.974;2023-04-09T08:54:16;101167.91;;;19.06;61.30
21640;BME280;10981;45.462;10.974;2023-04-09T08:56:47;101163.59;;;20.09;62.60
21640;BME280;10981;45.462;10.974;2023-04-09T08:59:16;101170.13;;;20.53;58.78
21640;BME280;10981;45.462;10.974;2023-04-09T09:01:47;101166.38;;;19.85;58.92
21640;BME280;10981;45.462;10.974;2023-04-09T09:04:21;101166.25;;;19.22;58.91
21640;BME280;10981;45.462;10.974;2023-04-09T09:06:50;101170.53;;;18.32;61.33
21640;BME280;10981;45.462;10.974;2023-04-09T09:09:20;101160.47;;;19.02;61.93
21640;BME280;10981;45.462;10.974;2023-04-09T09:11:49;101155.59;;;20.41;57.92
21640;BME280;10981;45.462;10.974;2023-04-09T09:14:19;101157.59;;;20.85;56.64
21640;BME280;10981;45.462;10.974;2023-04-09T09:21:58;101167.91;;;19.71;58.97
21640;BME280;10981;45.462;10.974;2023-04-09T09:24:26;101169.75;;;19.62;58.91
21640;BME280;10981;45.462;10.974;2023-04-09T09:26:55;101168.22;;;19.76;58.84
21640;BME280;10981;45.462;10.974;2023-04-09T09:29:27;101167.03;;;20.65;56.84
21640;BME280;10981;45.462;10.974;2023-04-09T09:31:56;101160.44;;;20.84;55.70
21640;BME280;10981;45.462;10.974;2023-04-09T09:34:24;101167.84;;;20.65;55.83
21640;BME280;10981;45.462;10.974;2023-04-09T09:36:53;101157.06;;;20.44;54.14
21640;BME280;10981;45.462;10.974;2023-04-09T09:39:21;101172.50;;;19.37;60.50
21640;BME280;10981;45.462;10.974;2023-04-09T09:42:06;101166.25;;;18.56;59.02
21640;BME280;10981;45.462;10.974;2023-04-09T09:44:35;101167.53;;;17.84;60.47
21640;BME280;10981;45.462;10.974;2023-04-09T09:47:03;101168.88;;;17.54;63.22
21640;BME280;10981;45.462;10.974;2023-04-09T09:49:32;101169.28;;;17.06;64.08
21640;BME280;10981;45.462;10.974;2023-04-09T09:52:01;101164.84;;;16.71;63.00
21640;BME280;10981;45.462;10.974;2023-04-09T09:54:39;101167.44;;;16.62;64.34
21640;BME280;10981;45.462;10.974;2023-04-09T09:57:12;101162.38;;;16.69;65.33
21640;BME280;10981;45.462;10.974;2023-04-09T09:59:45;101164.66;;;17.35;64.03
21640;BME280;10981;45.462;10.974;2023-04-09T10:02:19;101162.34;;;17.31;62.94
21640;BME280;10981;45.462;10.974;2023-04-09T10:04:49;101169.66;;;17.38;63.54
21640;BME280;10981;45.462;10.974;2023-04-09T10:07:21;101166.66;;;17.32;64.06
21640;BME280;10981;45.462;10.974;2023-04-09T10:09:52;101171.66;;;17.18;61.31
21640;BME280;10981;45.462;10.974;2023-04-09T10:12:22;101162.28;;;16.43;64.41
21640;BME280;10981;45.462;10.974;2023-04-09T10:14:51;101164.41;;;16.93;65.14
21640;BME280;10981;45.462;10.974;2023-04-09T10:17:31;101166.75;;;17.57;64.40
21640;BME280;10981;45.462;10.974;2023-04-09T10:20:27;101170.53;;;17.89;61.04
21640;BME280;10981;45.462;10.974;2023-04-09T10:22:57;101161.34;;;17.93;62.54
21640;BME280;10981;45.462;10.974;2023-04-09T10:25:30;101165.66;;;18.03;61.15
21640;BME280;10981;45.462;10.974;2023-04-09T10:28:00;101171.19;;;17.83;62.59
21640;BME280;10981;45.462;10.974;2023-04-09T10:30:33;101159.22;;;17.71;61.42
21640;BME280;10981;45.462;10.974;2023-04-09T10:33:12;101162.84;;;17.09;61.36
21640;BME280;10981;45.462;10.974;2023-04-09T10:35:42;101158.53;;;17.08;61.97
21640;BME280;10981;45.462;10.974;2023-04-09T10:38:14;101160.47;;;16.61;61.22
21640;BME280;10981;45.462;10.974;2023-04-09T10:40:49;101159.25;;;16.38;62.33
21640;BME280;10981;45.462;10.974;2023-04-09T10:43:18;101158.81;;;16.42;65.17
21640;BME280;10981;45.462;10.974;2023-04-09T10:45:48;101152.84;;;16.58;65.94
21640;BME280;10981;45.462;10.974;2023-04-09T10:48:20;101152.25;;;16.64;64.25
21640;BME280;10981;45.462;10.974;2023-04-09T10:50:53;101153.88;;;16.83;63.80
21640;BME280;10981;45.462;10.974;2023-04-09T10:53:23;101148.69;;;16.92;63.51
21640;BME280;10981;45.462;10.974;2023-04-09T10:55:53;101144.31;;;16.82;64.31
21640;BME280;10981;45.462;10.974;2023-04-09T10:58:21;101144.25;;;16.74;63.67
21640;BME280;10981;45.462;10.974;2023-04-09T11:00:50;101144.03;;;16.67;65.04
21640;BME280;10981;45.462;10.974;2023-04-09T11:03:20;101144.34;;;16.28;62.94
21640;BME280;10981;45.462;10.974;2023-04-09T11:08:31;101137.00;;;16.76;65.26
21640;BME280;10981;45.462;10.974;2023-04-09T11:11:00;101129.88;;;16.95;62.84
21640;BME280;10981;45.462;10.974;2023-04-09T11:13:30;101129.22;;;17.19;62.36
21640;BME280;10981;45.462;10.974;2023-04-09T11:15:59;101134.41;;;17.29;64.31
21640;BME280;10981;45.462;10.974;2023-04-09T11:18:30;101133.56;;;17.28;62.68
21640;BME280;10981;45.462;10.974;2023-04-09T11:21:02;101131.09;;;17.61;62.41
21640;BME280;10981;45.462;10.974;2023-04-09T11:23:34;101130.16;;;17.44;64.39
21640;BME280;10981;45.462;10.974;2023-04-09T11:26:02;101131.44;;;18.26;63.94
21640;BME280;10981;45.462;10.974;2023-04-09T11:28:34;101125.50;;;18.98;61.59
21640;BME280;10981;45.462;10.974;2023-04-09T11:31:04;101128.41;;;19.36;59.34
21640;BME280;10981;45.462;10.974;2023-04-09T11:33:34;101129.50;;;18.94;58.85
21640;BME280;10981;45.462;10.974;2023-04-09T11:36:04;101136.91;;;18.33;60.43
21640;BME280;10981;45.462;10.974;2023-04-09T11:38:35;101129.50;;;17.85;61.13
21640;BME280;10981;45.462;10.974;2023-04-09T11:41:04;101131.94;;;17.70;63.72
21640;BME280;10981;45.462;10.974;2023-04-09T11:43:34;101132.06;;;16.99;60.94
21640;BME280;10981;45.462;10.974;2023-04-09T11:46:03;101132.63;;;16.85;63.02
21640;BME280;10981;45.462;10.974;2023-04-09T11:48:32;101123.25;;;16.91;64.45
21640;BME280;10981;45.462;10.974;2023-04-09T11:51:01;101127.16;;;17.05;61.23
21640;BME280;10981;45.462;10.974;2023-04-09T11:53:31;101123.28;;;17.60;61.22
21640;BME280;10981;45.462;10.974;2023-04-09T11:55:59;101124.47;;;18.25;61.95
21640;BME280;10981;45.462;10.974;2023-04-09T11:58:27;101121.38;;;18.95;59.36
21640;BME280;10981;45.462;10.974;2023-04-09T12:00:58;101118.22;;;18.18;59.18
21640;BME280;10981;45.462;10.974;2023-04-09T12:03:28;101105.59;;;17.95;60.30
21640;BME280;10981;45.462;10.974;2023-04-09T12:06:00;101116.06;;;18.46;61.46
21640;BME280;10981;45.462;10.974;2023-04-09T12:08:29;101110.06;;;19.10;60.26
21640;BME280;10981;45.462;10.974;2023-04-09T12:11:11;101109.38;;;19.64;56.78
21640;BME280;10981;45.462;10.974;2023-04-09T12:13:39;101110.63;;;19.85;55.73
21640;BME280;10981;45.462;10.974;2023-04-09T12:16:12;101106.94;;;20.17;54.74
21640;BME280;10981;45.462;10.974;2023-04-09T12:18:41;101100.66;;;19.47;54.51
21640;BME280;10981;45.462;10.974;2023-04-09T12:21:09;101101.88;;;19.28;55.93
21640;BME280;10981;45.462;10.974;2023-04-09T12:23:38;101090.13;;;19.62;57.32
21640;BME280;10981;45.462;10.974;2023-04-09T12:26:07;101092.56;;;19.40;56.00
21640;BME280;10981;45.462;10.974;2023-04-09T12:28:35;101088.56;;;18.14;57.17
21640;BME280;10981;45.462;10.974;2023-04-09T12:31:04;101090.69;;;17.94;60.36
21640;BME280;10981;45.462;10.974;2023-04-09T12:33:32;101077.81;;;18.49;60.57
21640;BME280;10981;45.462;10.974;2023-04-09T12:36:01;101075.09;;;19.15;61.12
21640;BME280;10981;45.462;10.974;2023-04-09T12:38:32;101076.50;;;19.34;58.01
21640;BME280;10981;45.462;10.974;2023-04-09T12:41:00;101088.72;;;18.70;56.62
21640;BME280;10981;45.462;10.974;2023-04-09T12:43:29;101090.72;;;18.02;58.32
21640;BME280;10981;45.462;10.974;2023-04-09T12:45:57;101082.84;;;17.84;59.44
21640;BME280;10981;45.462;10.974;2023-04-09T12:48:26;101091.25;;;17.63;59.54
21640;BME280;10981;45.462;10.974;2023-04-09T12:50:54;101088.56;;;17.20;60.29
21640;BME280;10981;45.462;10.974;2023-04-09T12:53:22;101090.97;;;17.05;60.56
21640;BME280;10981;45.462;10.974;2023-04-09T12:55:51;101085.53;;;17.07;60.93
21640;BME280;10981;45.462;10.974;2023-04-09T12:58:19;101072.19;;;16.90;62.01
21640;BME280;10981;45.462;10.974;2023-04-09T13:00:47;101083.13;;;16.69;61.92
21640;BME280;10981;45.462;10.974;2023-04-09T13:03:16;101083.94;;;16.70;62.97
21640;BME280;10981;45.462;10.974;2023-04-09T13:05:45;101077.41;;;16.82;63.81
21640;BME280;10981;45.462;10.974;2023-04-09T13:08:14;101082.16;;;16.52;63.22
21640;BME280;10981;45.462;10.974;2023-04-09T13:10:43;101078.16;;;16.66;64.01